Time;durP1;ratioP1;P1;durP2;ratioP2;P2;SDS_P1;SDS_P2;PMS_P1;PMS_P2;Temp;Humidity;BMP_temperature;BMP_pressure;BME280_temperature;BME280_humidity;BME280_pressure;Samples;Min_cycle;Max_cycle;Signal;HPM_P1;HPM_P2
2023/05/09 00:01:05;;;;;;;10.10;6.67;;;;;;;;;;5073446;28;20444;-72
2023/05/09 00:03:33;;;;;;;12.57;9.20;;;;;;;;;;5073698;28;20823;-72
2023/05/09 00:06:00;;;;;;;9.97;7.00;;;;;;;;;;5073236;28;20452;-72
2023/05/09 00:08:29;;;;;;;16.70;7.63;;;;;;;;;;5073272;28;20447;-73
2023/05/09 00:10:56;;;;;;;11.23;6.63;;;;;;;;;;5076340;28;20495;-72
2023/05/09 00:13:24;;;;;;;9.07;7.40;;;;;;;;;;5077243;28;20475;-73
2023/05/09 00:15:52;;;;;;;12.60;8.17;;;;;;;;;;5077221;28;20905;-72
2023/05/09 00:18:20;;;;;;;9.63;7.17;;;;;;;;;;5077511;28;20555;-72
2023/05/09 00:20:48;;;;;;;10.07;7.53;;;;;;;;;;5077992;28;20455;-72
2023/05/09 00:23:15;;;;;;;10.00;6.43;;;;;;;;;;5077246;28;20539;-72
2023/05/09 00:25:43;;;;;;;10.63;9.47;;;;;;;;;;5077535;28;20440;-72
2023/05/09 00:28:11;;;;;;;12.33;7.60;;;;;;;;;;5077787;28;20462;-72
2023/05/09 00:30:38;;;;;;;13.80;7.40;;;;;;;;;;5076663;28;20443;-72
2023/05/09 00:33:05;;;;;;;9.60;6.43;;;;;;;;;;5078161;28;20498;-72
2023/05/09 00:35:33;;;;;;;12.47;7.43;;;;;;;;;;5077152;28;20823;-72
2023/05/09 00:38:00;;;;;;;11.53;7.50;;;;;;;;;;5077391;28;20953;-72
2023/05/09 00:40:27;;;;;;;11.77;7.10;;;;;;;;;;5078291;28;20448;-72
2023/05/09 00:42:57;;;;;;;10.30;7.03;;;;;;;;;;5077475;28;20838;-72
2023/05/09 00:45:24;;;;;;;15.73;9.03;;;;;;;;;;5077387;28;20471;-72
2023/05/09 00:47:51;;;;;;;8.73;7.23;;;;;;;;;;5077516;28;20440;-72
2023/05/09 00:50:19;;;;;;;12.73;7.77;;;;;;;;;;5076937;28;20440;-73
2023/05/09 00:52:46;;;;;;;12.50;8.50;;;;;;;;;;5077372;28;20519;-72
2023/05/09 00:55:14;;;;;;;22.97;7.70;;;;;;;;;;5077024;28;20546;-72
2023/05/09 00:57:41;;;;;;;9.40;6.50;;;;;;;;;;5077243;28;20447;-72
2023/05/09 01:00:11;;;;;;;10.20;7.60;;;;;;;;;;5077413;28;20439;-72
2023/05/09 01:02:39;;;;;;;10.03;7.40;;;;;;;;;;5077422;28;20490;-72
2023/05/09 01:05:06;;;;;;;11.40;8.57;;;;;;;;;;5076806;28;20452;-72
2023/05/09 01:07:37;;;;;;;11.00;7.80;;;;;;;;;;5076644;28;20813;-73
2023/05/09 01:10:08;;;;;;;10.93;9.00;;;;;;;;;;5077783;28;20435;-72
2023/05/09 01:12:37;;;;;;;9.17;8.20;;;;;;;;;;5076902;28;20491;-72
2023/05/09 01:15:09;;;;;;;9.70;7.60;;;;;;;;;;5076391;28;20455;-72
2023/05/09 01:17:41;;;;;;;9.27;7.90;;;;;;;;;;5076230;28;20865;-72
2023/05/09 01:20:13;;;;;;;11.30;7.63;;;;;;;;;;5077775;28;20440;-72
2023/05/09 01:22:45;;;;;;;11.63;7.47;;;;;;;;;;5077123;28;20968;-72
2023/05/09 01:25:21;;;;;;;10.87;7.10;;;;;;;;;;5077613;28;20436;-72
2023/05/09 01:27:51;;;;;;;9.70;6.97;;;;;;;;;;5076982;28;20440;-72
2023/05/09 01:30:21;;;;;;;18.63;8.20;;;;;;;;;;5077762;28;20432;-72
2023/05/09 01:32:49;;;;;;;8.93;5.50;;;;;;;;;;5077831;28;20996;-72
2023/05/09 01:35:16;;;;;;;8.93;7.00;;;;;;;;;;5075493;28;20451;-72
2023/05/09 01:37:45;;;;;;;8.67;6.60;;;;;;;;;;5075897;28;20451;-72
2023/05/09 01:40:15;;;;;;;7.40;6.50;;;;;;;;;;5076374;28;20444;-73
2023/05/09 01:42:43;;;;;;;9.43;8.53;;;;;;;;;;5076341;28;20471;-72
2023/05/09 01:45:12;;;;;;;9.20;7.17;;;;;;;;;;5076695;28;20468;-72
2023/05/09 01:47:41;;;;;;;8.30;6.00;;;;;;;;;;5076304;28;20498;-72
2023/05/09 01:50:10;;;;;;;9.40;7.37;;;;;;;;;;5075690;28;20459;-72
2023/05/09 01:52:38;;;;;;;8.67;6.67;;;;;;;;;;5076423;28;20487;-72
2023/05/09 01:55:06;;;;;;;16.83;7.27;;;;;;;;;;5075909;28;20444;-75
2023/05/09 01:57:34;;;;;;;11.70;7.07;;;;;;;;;;5075562;28;20947;-72
2023/05/09 02:00:02;;;;;;;10.00;7.00;;;;;;;;;;5076397;28;20432;-72
2023/05/09 02:02:29;;;;;;;7.77;6.33;;;;;;;;;;5075083;28;20464;-72
2023/05/09 02:04:58;;;;;;;6.83;5.87;;;;;;;;;;5075097;28;20444;-72
2023/05/09 02:07:25;;;;;;;8.43;6.00;;;;;;;;;;5075546;28;20933;-72
2023/05/09 02:09:55;;;;;;;6.97;5.57;;;;;;;;;;5075305;28;20432;-72
2023/05/09 02:12:22;;;;;;;9.23;6.23;;;;;;;;;;5076304;28;20494;-72
2023/05/09 02:14:49;;;;;;;8.83;6.90;;;;;;;;;;5075820;28;20451;-72
2023/05/09 02:17:16;;;;;;;13.20;6.73;;;;;;;;;;5076532;28;20467;-72
2023/05/09 02:19:43;;;;;;;8.53;6.40;;;;;;;;;;5075796;28;20458;-72
2023/05/09 02:22:12;;;;;;;12.13;7.53;;;;;;;;;;5075380;28;20468;-72
2023/05/09 02:24:40;;;;;;;8.03;6.53;;;;;;;;;;5074804;28;20439;-72
2023/05/09 02:27:07;;;;;;;9.03;6.80;;;;;;;;;;5074915;28;20451;-72
2023/05/09 02:29:39;;;;;;;13.90;6.77;;;;;;;;;;5075057;28;20463;-72
2023/05/09 02:32:07;;;;;;;14.83;6.77;;;;;;;;;;5075490;28;20914;-72
2023/05/09 02:34:35;;;;;;;10.33;6.07;;;;;;;;;;5075698;28;20933;-72
2023/05/09 02:37:03;;;;;;;13.40;6.33;;;;;;;;;;5076118;28;20455;-72
2023/05/09 02:39:31;;;;;;;7.40;6.40;;;;;;;;;;5075571;28;20546;-72
2023/05/09 02:42:02;;;;;;;9.67;7.67;;;;;;;;;;5075038;28;20465;-71
2023/05/09 02:44:29;;;;;;;7.40;6.27;;;;;;;;;;5075470;28;20440;-72
2023/05/09 02:46:57;;;;;;;8.47;6.03;;;;;;;;;;5075557;28;20466;-72
2023/05/09 02:49:24;;;;;;;12.50;5.97;;;;;;;;;;5074958;28;20455;-72
2023/05/09 02:51:51;;;;;;;7.90;6.17;;;;;;;;;;5074436;28;20494;-72
2023/05/09 02:54:18;;;;;;;8.93;6.17;;;;;;;;;;5075330;28;20487;-72
2023/05/09 02:56:46;;;;;;;7.83;6.57;;;;;;;;;;5074667;28;20452;-72
2023/05/09 02:59:14;;;;;;;9.17;6.97;;;;;;;;;;5074226;28;20940;-72
2023/05/09 03:01:41;;;;;;;7.30;5.37;;;;;;;;;;5073786;28;20928;-72
2023/05/09 03:04:08;;;;;;;6.50;5.13;;;;;;;;;;5073849;28;20475;-72
2023/05/09 03:06:35;;;;;;;10.00;6.03;;;;;;;;;;5073322;28;20455;-72
2023/05/09 03:09:02;;;;;;;9.10;6.90;;;;;;;;;;5073842;28;20956;-72
2023/05/09 03:11:29;;;;;;;9.70;6.33;;;;;;;;;;5073981;28;20452;-72
2023/05/09 03:13:58;;;;;;;8.83;6.60;;;;;;;;;;5074101;28;20467;-72
2023/05/09 03:16:25;;;;;;;6.70;5.23;;;;;;;;;;5073746;28;20832;-72
2023/05/09 03:18:52;;;;;;;6.20;5.47;;;;;;;;;;5073775;28;20440;-72
2023/05/09 03:21:20;;;;;;;6.67;5.50;;;;;;;;;;5073122;28;20455;-72
2023/05/09 03:23:47;;;;;;;12.17;6.97;;;;;;;;;;5073061;28;20481;-72
2023/05/09 03:26:14;;;;;;;7.07;5.40;;;;;;;;;;5073642;28;20446;-73
2023/05/09 03:28:41;;;;;;;10.40;6.10;;;;;;;;;;5073771;28;20452;-72
2023/05/09 03:31:10;;;;;;;11.13;6.20;;;;;;;;;;5073719;28;20956;-72
2023/05/09 03:33:37;;;;;;;7.83;6.10;;;;;;;;;;5073419;28;20483;-72
2023/05/09 03:36:05;;;;;;;12.80;6.33;;;;;;;;;;5073109;28;20444;-72
2023/05/09 03:38:32;;;;;;;8.90;6.13;;;;;;;;;;5072816;28;20472;-72
2023/05/09 03:40:59;;;;;;;8.70;5.93;;;;;;;;;;5074813;28;20456;-72
2023/05/09 03:43:27;;;;;;;9.80;6.47;;;;;;;;;;5074834;28;20521;-72
2023/05/09 03:45:55;;;;;;;12.67;6.50;;;;;;;;;;5078409;28;20496;-72
2023/05/09 03:48:24;;;;;;;8.97;6.33;;;;;;;;;;5097070;28;20868;-72
2023/05/09 03:50:52;;;;;;;13.57;5.77;;;;;;;;;;5099031;28;20829;-73
2023/05/09 03:53:19;;;;;;;7.93;6.00;;;;;;;;;;5097997;28;20485;-72
2023/05/09 03:55:46;;;;;;;9.80;6.17;;;;;;;;;;5098487;28;20450;-72
2023/05/09 03:58:13;;;;;;;7.83;6.10;;;;;;;;;;5098785;28;20451;-72
2023/05/09 04:00:41;;;;;;;7.33;6.50;;;;;;;;;;5098426;28;20497;-72
2023/05/09 04:03:08;;;;;;;9.17;6.13;;;;;;;;;;5099009;28;20469;-72
2023/05/09 04:05:36;;;;;;;5.67;4.80;;;;;;;;;;5098779;28;20473;-73
2023/05/09 04:08:03;;;;;;;6.90;5.70;;;;;;;;;;5098375;28;20939;-72
2023/05/09 04:10:31;;;;;;;6.27;5.53;;;;;;;;;;5097755;28;20457;-73
2023/05/09 04:12:58;;;;;;;10.90;6.57;;;;;;;;;;5097822;28;20539;-73
2023/05/09 04:15:25;;;;;;;11.40;6.70;;;;;;;;;;5097400;28;20948;-72
2023/05/09 04:17:52;;;;;;;8.93;6.53;;;;;;;;;;5098080;28;20813;-72
2023/05/09 04:20:19;;;;;;;7.87;6.17;;;;;;;;;;5098106;28;20442;-73
2023/05/09 04:22:48;;;;;;;10.50;6.10;;;;;;;;;;5097410;28;20477;-72
2023/05/09 04:25:15;;;;;;;9.53;6.70;;;;;;;;;;5097320;28;20443;-73
2023/05/09 04:27:42;;;;;;;6.50;5.73;;;;;;;;;;5098057;28;20458;-73
2023/05/09 04:30:10;;;;;;;6.37;5.30;;;;;;;;;;5097874;28;20438;-73
2023/05/09 04:32:37;;;;;;;6.50;5.53;;;;;;;;;;5097844;28;20505;-73
2023/05/09 04:35:06;;;;;;;5.97;5.37;;;;;;;;;;5097152;28;20446;-73
2023/05/09 04:37:34;;;;;;;5.97;5.00;;;;;;;;;;5097051;28;20447;-73
2023/05/09 04:40:02;;;;;;;6.63;5.03;;;;;;;;;;5096792;28;20451;-73
2023/05/09 04:42:32;;;;;;;9.03;6.40;;;;;;;;;;5097177;28;20473;-73
2023/05/09 04:44:59;;;;;;;5.40;4.70;;;;;;;;;;5096574;28;20458;-72
2023/05/09 04:47:27;;;;;;;6.17;5.57;;;;;;;;;;5096975;28;20431;-72
2023/05/09 04:49:54;;;;;;;7.33;5.10;;;;;;;;;;5096811;28;20469;-72
2023/05/09 04:52:22;;;;;;;7.30;5.80;;;;;;;;;;5096678;28;20475;-73
2023/05/09 04:54:49;;;;;;;8.03;5.70;;;;;;;;;;5097773;28;20455;-73
2023/05/09 04:57:18;;;;;;;5.30;4.67;;;;;;;;;;5095517;28;20522;-73
2023/05/09 04:59:46;;;;;;;6.30;4.83;;;;;;;;;;5097995;28;20447;-73
2023/05/09 05:02:13;;;;;;;9.70;5.20;;;;;;;;;;5097939;28;20471;-73
2023/05/09 05:04:40;;;;;;;7.17;6.40;;;;;;;;;;5096302;28;20451;-73
2023/05/09 05:07:08;;;;;;;7.93;5.10;;;;;;;;;;5096556;28;21031;-73
2023/05/09 05:09:35;;;;;;;10.60;4.90;;;;;;;;;;5097520;28;20445;-73
2023/05/09 05:12:05;;;;;;;5.20;4.70;;;;;;;;;;5098155;28;20450;-72
2023/05/09 05:14:34;;;;;;;18.77;5.90;;;;;;;;;;5097356;28;20479;-74
2023/05/09 05:17:01;;;;;;;5.17;4.63;;;;;;;;;;5097456;28;20455;-73
2023/05/09 05:19:28;;;;;;;6.73;5.43;;;;;;;;;;5096708;28;20451;-75
2023/05/09 05:21:56;;;;;;;7.63;5.40;;;;;;;;;;5095611;28;20451;-74
2023/05/09 05:24:23;;;;;;;6.37;5.10;;;;;;;;;;5096428;28;20451;-74
2023/05/09 05:26:51;;;;;;;5.93;5.00;;;;;;;;;;5096437;28;20435;-73
2023/05/09 05:29:19;;;;;;;4.87;4.30;;;;;;;;;;5096508;28;20866;-75
2023/05/09 05:31:47;;;;;;;6.30;5.27;;;;;;;;;;5096324;28;20447;-76
2023/05/09 05:34:15;;;;;;;6.97;5.10;;;;;;;;;;5095562;28;20494;-75
2023/05/09 05:36:42;;;;;;;6.53;5.90;;;;;;;;;;5095817;28;20550;-76
2023/05/09 05:39:09;;;;;;;6.32;5.38;;;;;;;;;;5095707;28;20446;-75
2023/05/09 05:41:36;;;;;;;7.43;5.30;;;;;;;;;;5095553;28;20217;-75
2023/05/09 05:44:04;;;;;;;9.30;5.60;;;;;;;;;;5095941;28;20837;-76
2023/05/09 05:46:31;;;;;;;6.43;4.80;;;;;;;;;;5095043;28;20465;-76
2023/05/09 05:48:59;;;;;;;9.87;5.77;;;;;;;;;;5095970;28;20461;-75
2023/05/09 05:51:26;;;;;;;6.80;5.50;;;;;;;;;;5095850;28;20461;-75
2023/05/09 05:53:54;;;;;;;8.63;7.40;;;;;;;;;;5096040;28;20490;-76
2023/05/09 05:56:21;;;;;;;5.27;4.77;;;;;;;;;;5095402;28;20466;-76
2023/05/09 05:58:48;;;;;;;6.20;5.70;;;;;;;;;;5095851;28;20466;-76
2023/05/09 06:01:15;;;;;;;5.97;5.03;;;;;;;;;;5095221;28;20457;-76
2023/05/09 06:03:42;;;;;;;6.40;5.80;;;;;;;;;;5095106;28;20482;-76
2023/05/09 06:06:11;;;;;;;6.80;6.10;;;;;;;;;;5094769;28;20454;-76
2023/05/09 06:08:38;;;;;;;5.63;5.03;;;;;;;;;;5088419;28;20458;-76
2023/05/09 06:11:06;;;;;;;5.57;5.07;;;;;;;;;;5094346;28;20435;-74
2023/05/09 06:13:33;;;;;;;5.07;4.57;;;;;;;;;;5093536;28;20505;-74
2023/05/09 06:16:00;;;;;;;5.03;4.53;;;;;;;;;;5093683;28;20690;-74
2023/05/09 06:18:27;;;;;;;6.87;5.40;;;;;;;;;;5093921;28;20450;-74
2023/05/09 06:20:54;;;;;;;6.40;5.23;;;;;;;;;;5093562;28;20454;-77
2023/05/09 06:23:23;;;;;;;6.37;5.37;;;;;;;;;;5094712;28;20960;-77
2023/05/09 06:25:51;;;;;;;6.07;4.93;;;;;;;;;;5094248;28;20919;-74
2023/05/09 06:28:18;;;;;;;7.53;5.50;;;;;;;;;;5093882;28;20443;-75
2023/05/09 06:30:45;;;;;;;6.23;4.90;;;;;;;;;;5093884;28;20454;-74
2023/05/09 06:33:12;;;;;;;5.93;5.40;;;;;;;;;;5093538;28;20487;-74
2023/05/09 06:35:39;;;;;;;8.17;6.23;;;;;;;;;;5093570;28;20435;-74
2023/05/09 06:38:06;;;;;;;6.60;6.00;;;;;;;;;;5093529;28;20455;-74
2023/05/09 06:40:35;;;;;;;6.37;5.53;;;;;;;;;;5093446;28;20509;-74
2023/05/09 06:43:02;;;;;;;6.13;5.53;;;;;;;;;;5093454;28;20477;-74
2023/05/09 06:45:30;;;;;;;6.13;5.53;;;;;;;;;;5093042;28;20468;-74
2023/05/09 06:47:57;;;;;;;8.90;5.50;;;;;;;;;;5093426;28;20450;-74
2023/05/09 06:50:24;;;;;;;7.60;6.80;;;;;;;;;;5093017;28;20806;-75
2023/05/09 06:52:51;;;;;;;8.60;6.20;;;;;;;;;;5093124;28;20474;-74
2023/05/09 06:55:18;;;;;;;6.70;5.70;;;;;;;;;;5093016;28;20454;-74
2023/05/09 06:57:47;;;;;;;8.30;6.10;;;;;;;;;;5092989;28;20504;-74
2023/05/09 07:00:15;;;;;;;6.73;5.47;;;;;;;;;;5093121;28;20452;-75
2023/05/09 07:02:42;;;;;;;6.60;5.97;;;;;;;;;;5092923;28;20469;-75
2023/05/09 07:05:09;;;;;;;8.10;6.10;;;;;;;;;;5092432;28;20873;-75
2023/05/09 07:07:37;;;;;;;7.03;6.33;;;;;;;;;;5093179;28;20450;-74
2023/05/09 07:10:05;;;;;;;8.17;6.30;;;;;;;;;;5093364;28;20924;-74
2023/05/09 07:12:32;;;;;;;6.53;5.97;;;;;;;;;;5093273;28;20481;-74
2023/05/09 07:15:01;;;;;;;7.07;6.37;;;;;;;;;;5093563;28;20482;-74
2023/05/09 07:17:28;;;;;;;8.93;6.43;;;;;;;;;;5093354;28;20827;-74
2023/05/09 07:19:56;;;;;;;10.97;5.60;;;;;;;;;;5092391;28;20990;-74
2023/05/09 07:22:23;;;;;;;9.10;5.67;;;;;;;;;;5093106;28;20479;-74
2023/05/09 07:24:50;;;;;;;9.03;5.83;;;;;;;;;;5092958;28;20439;-74
2023/05/09 07:27:18;;;;;;;10.80;6.60;;;;;;;;;;5092386;28;20431;-74
2023/05/09 07:29:45;;;;;;;11.07;6.30;;;;;;;;;;5092041;28;20456;-74
2023/05/09 07:32:14;;;;;;;7.97;6.47;;;;;;;;;;5092090;28;20478;-74
2023/05/09 07:34:41;;;;;;;6.37;5.77;;;;;;;;;;5091813;28;20487;-74
2023/05/09 07:37:08;;;;;;;8.40;6.40;;;;;;;;;;5092411;28;20451;-74
2023/05/09 07:39:35;;;;;;;7.70;6.40;;;;;;;;;;5092240;28;20522;-74
2023/05/09 07:42:02;;;;;;;8.20;5.80;;;;;;;;;;5092692;28;20458;-74
2023/05/09 07:44:30;;;;;;;6.90;5.97;;;;;;;;;;5092413;28;20446;-74
2023/05/09 07:46:58;;;;;;;7.93;7.07;;;;;;;;;;5092563;28;20523;-74
2023/05/09 07:49:26;;;;;;;7.40;6.70;;;;;;;;;;5092136;28;20455;-74
2023/05/09 07:51:53;;;;;;;7.43;6.60;;;;;;;;;;5092108;28;20450;-74
2023/05/09 07:54:20;;;;;;;8.00;6.60;;;;;;;;;;5091900;28;20493;-74
2023/05/09 07:56:47;;;;;;;9.27;6.50;;;;;;;;;;5092176;28;20457;-74
2023/05/09 07:59:15;;;;;;;9.70;6.27;;;;;;;;;;5091830;28;20462;-76
2023/05/09 08:01:43;;;;;;;11.60;6.20;;;;;;;;;;5092077;28;20835;-74
2023/05/09 08:04:10;;;;;;;7.70;6.67;;;;;;;;;;5092356;28;20527;-74
2023/05/09 08:06:38;;;;;;;7.60;6.70;;;;;;;;;;5092248;28;20450;-74
2023/05/09 08:09:05;;;;;;;8.33;6.53;;;;;;;;;;5092018;28;20439;-74
2023/05/09 08:11:34;;;;;;;8.90;6.33;;;;;;;;;;5092810;28;20800;-74
2023/05/09 08:14:01;;;;;;;7.57;6.20;;;;;;;;;;5092363;28;20494;-74
2023/05/09 08:16:28;;;;;;;8.43;7.57;;;;;;;;;;5093173;28;20948;-75
2023/05/09 08:18:55;;;;;;;8.30;6.70;;;;;;;;;;5093001;28;20451;-74
2023/05/09 08:21:22;;;;;;;10.53;7.50;;;;;;;;;;5093759;28;20812;-74
2023/05/09 08:23:51;;;;;;;7.10;6.40;;;;;;;;;;5093168;28;20463;-74
2023/05/09 08:26:18;;;;;;;8.67;7.87;;;;;;;;;;5093186;28;20442;-74
2023/05/09 08:28:46;;;;;;;7.83;7.13;;;;;;;;;;5093709;28;20435;-74
2023/05/09 08:31:13;;;;;;;9.30;8.33;;;;;;;;;;5095481;28;20465;-74
2023/05/09 08:33:40;;;;;;;7.83;7.10;;;;;;;;;;5097003;28;20559;-74
2023/05/09 08:36:07;;;;;;;8.10;7.40;;;;;;;;;;5096150;28;20454;-74
2023/05/09 08:38:35;;;;;;;7.70;6.73;;;;;;;;;;5096009;28;21011;-74
2023/05/09 08:41:04;;;;;;;8.27;7.30;;;;;;;;;;5096130;28;20545;-73
2023/05/09 08:43:32;;;;;;;8.53;7.30;;;;;;;;;;5095726;28;20478;-74
2023/05/09 08:46:01;;;;;;;11.03;7.43;;;;;;;;;;5095680;28;20465;-74
2023/05/09 08:48:29;;;;;;;8.47;7.53;;;;;;;;;;5095729;28;20545;-76
2023/05/09 08:50:56;;;;;;;8.13;7.30;;;;;;;;;;5095716;28;20447;-76
2023/05/09 08:53:23;;;;;;;8.43;7.50;;;;;;;;;;5095580;28;20983;-76
2023/05/09 08:55:51;;;;;;;8.83;7.53;;;;;;;;;;5095508;28;20470;-74
2023/05/09 08:58:21;;;;;;;8.27;7.47;;;;;;;;;;5095898;28;20447;-74
2023/05/09 09:00:50;;;;;;;11.87;9.40;;;;;;;;;;5095901;28;20458;-74
2023/05/09 09:03:18;;;;;;;9.60;8.60;;;;;;;;;;5095803;28;20498;-74
2023/05/09 09:05:45;;;;;;;11.40;7.80;;;;;;;;;;5095527;28;20463;-74
2023/05/09 09:08:12;;;;;;;8.40;7.60;;;;;;;;;;5095434;28;20513;-74
2023/05/09 09:10:41;;;;;;;10.00;8.47;;;;;;;;;;5095611;28;20944;-74
2023/05/09 09:13:09;;;;;;;9.87;8.50;;;;;;;;;;5095454;28;20470;-74
2023/05/09 09:15:38;;;;;;;13.77;7.90;;;;;;;;;;5095296;28;20482;-74
2023/05/09 09:18:07;;;;;;;9.40;8.53;;;;;;;;;;5095415;28;20446;-74
2023/05/09 09:20:36;;;;;;;9.50;8.20;;;;;;;;;;5095384;28;20450;-74
2023/05/09 09:23:04;;;;;;;9.43;8.43;;;;;;;;;;5094512;28;20493;-74
2023/05/09 09:25:32;;;;;;;9.30;8.30;;;;;;;;;;5094858;28;20863;-74
2023/05/09 09:27:59;;;;;;;10.00;9.00;;;;;;;;;;5094913;28;20446;-74
2023/05/09 09:30:26;;;;;;;11.87;8.10;;;;;;;;;;5094913;28;20821;-74
2023/05/09 09:32:55;;;;;;;11.63;8.13;;;;;;;;;;5094795;28;20509;-74
2023/05/09 09:35:23;;;;;;;9.17;8.27;;;;;;;;;;5094495;28;20497;-74
2023/05/09 09:37:56;;;;;;;10.77;9.07;;;;;;;;;;5094912;28;20459;-74
2023/05/09 09:40:25;;;;;;;8.80;8.03;;;;;;;;;;5094779;28;20501;-74
2023/05/09 09:42:53;;;;;;;9.60;8.70;;;;;;;;;;5094267;28;20467;-74
2023/05/09 09:45:20;;;;;;;10.37;9.10;;;;;;;;;;5094406;28;20974;-74
2023/05/09 09:47:48;;;;;;;13.83;9.60;;;;;;;;;;5094730;28;20469;-74
2023/05/09 09:50:18;;;;;;;10.57;9.40;;;;;;;;;;5094389;28;20463;-74
2023/05/09 09:52:50;;;;;;;10.17;8.50;;;;;;;;;;5094983;28;20462;-74
2023/05/09 09:55:17;;;;;;;9.13;8.23;;;;;;;;;;5094174;28;20851;-74
2023/05/09 09:57:45;;;;;;;11.70;9.40;;;;;;;;;;5094435;28;20461;-74
2023/05/09 10:00:13;;;;;;;10.60;9.50;;;;;;;;;;5094244;28;20670;-74
2023/05/09 10:02:48;;;;;;;11.77;9.40;;;;;;;;;;5094251;28;20496;-74
2023/05/09 10:05:20;;;;;;;16.97;9.83;;;;;;;;;;5094329;28;20486;-74
2023/05/09 10:07:52;;;;;;;9.93;8.93;;;;;;;;;;5094298;28;20869;-73
2023/05/09 10:10:19;;;;;;;11.47;8.80;;;;;;;;;;5094283;28;20446;-74
2023/05/09 10:12:48;;;;;;;10.37;9.17;;;;;;;;;;5094185;28;20527;-74
2023/05/09 10:15:19;;;;;;;11.20;9.33;;;;;;;;;;5094082;28;20847;-74
2023/05/09 10:17:46;;;;;;;13.97;11.07;;;;;;;;;;5093994;28;20998;-75
2023/05/09 10:20:14;;;;;;;10.03;9.03;;;;;;;;;;5093981;28;20869;-75
2023/05/09 10:22:42;;;;;;;11.73;9.90;;;;;;;;;;5093345;28;20558;-74
2023/05/09 10:25:13;;;;;;;10.77;9.60;;;;;;;;;;5094177;28;20905;-74
2023/05/09 10:27:42;;;;;;;11.37;10.00;;;;;;;;;;5094094;28;20803;-73
2023/05/09 10:30:13;;;;;;;10.77;9.67;;;;;;;;;;5093991;28;20486;-74
2023/05/09 10:32:43;;;;;;;12.80;9.10;;;;;;;;;;5093632;28;20535;-74
2023/05/09 10:35:12;;;;;;;10.37;9.20;;;;;;;;;;5093599;28;20486;-74
2023/05/09 10:37:40;;;;;;;10.00;9.00;;;;;;;;;;5093702;28;20549;-74
2023/05/09 10:40:13;;;;;;;10.80;9.63;;;;;;;;;;5093606;28;20461;-74
2023/05/09 10:42:41;;;;;;;9.70;8.80;;;;;;;;;;5093854;28;21041;-74
2023/05/09 10:45:09;;;;;;;11.03;9.90;;;;;;;;;;5093544;28;20474;-74
2023/05/09 10:47:37;;;;;;;14.30;9.67;;;;;;;;;;5093405;28;20459;-74
2023/05/09 10:50:05;;;;;;;10.33;9.20;;;;;;;;;;5093637;28;21013;-74
2023/05/09 10:52:33;;;;;;;16.40;10.47;;;;;;;;;;5093466;28;20467;-74
2023/05/09 10:55:01;;;;;;;10.63;9.53;;;;;;;;;;5092602;28;20494;-75
2023/05/09 10:57:30;;;;;;;10.17;8.97;;;;;;;;;;5093577;28;20478;-74
2023/05/09 10:59:59;;;;;;;11.10;8.70;;;;;;;;;;5093463;28;20533;-74
2023/05/09 11:02:29;;;;;;;9.53;8.60;;;;;;;;;;5093291;28;20523;-74
2023/05/09 11:05:16;;;;;;;9.70;8.70;;;;;;;;;;5093331;28;20496;-74
2023/05/09 11:07:43;;;;;;;12.93;8.57;;;;;;;;;;5093389;28;20451;-74
2023/05/09 11:10:11;;;;;;;10.50;9.40;;;;;;;;;;5093242;28;20451;-74
2023/05/09 11:15:32;;;;;;;9.27;8.43;;;;;;;;;;5131286;27;20540;-75
2023/05/09 11:18:06;;;;;;;10.83;9.73;;;;;;;;;;5131338;28;20942;-75
2023/05/09 11:20:35;;;;;;;10.17;9.17;;;;;;;;;;5131449;27;20485;-75
2023/05/09 11:23:04;;;;;;;10.13;8.90;;;;;;;;;;5130997;27;20505;-75
2023/05/09 11:25:31;;;;;;;10.30;9.30;;;;;;;;;;5131185;27;20471;-75
2023/05/09 11:27:59;;;;;;;14.83;9.33;;;;;;;;;;5131010;28;20473;-75
2023/05/09 11:30:39;;;;;;;11.60;9.37;;;;;;;;;;5131126;27;20453;-75
2023/05/09 11:33:21;;;;;;;10.33;9.33;;;;;;;;;;5131060;27;20488;-75
2023/05/09 11:35:49;;;;;;;11.70;10.50;;;;;;;;;;5130852;27;20894;-75
2023/05/09 11:38:21;;;;;;;9.90;8.90;;;;;;;;;;5131590;28;20433;-75
2023/05/09 11:40:49;;;;;;;12.13;9.30;;;;;;;;;;5131116;27;20433;-75
2023/05/09 11:43:16;;;;;;;10.37;9.37;;;;;;;;;;5130846;27;20568;-75
2023/05/09 11:45:43;;;;;;;11.03;9.93;;;;;;;;;;5130764;27;20453;-75
2023/05/09 11:48:12;;;;;;;11.73;10.47;;;;;;;;;;5130980;28;20452;-75
2023/05/09 11:50:40;;;;;;;10.60;9.57;;;;;;;;;;5130966;28;20898;-75
2023/05/09 11:53:07;;;;;;;10.83;9.27;;;;;;;;;;5130408;28;20487;-75
2023/05/09 11:55:38;;;;;;;11.73;9.40;;;;;;;;;;5130266;28;20476;-75
2023/05/09 11:58:08;;;;;;;12.00;8.87;;;;;;;;;;5130621;28;20969;-75
2023/05/09 12:00:36;;;;;;;10.30;9.30;;;;;;;;;;5130610;27;20799;-75
2023/05/09 12:03:06;;;;;;;14.03;10.00;;;;;;;;;;5130482;28;20472;-75
2023/05/09 12:05:36;;;;;;;10.30;9.40;;;;;;;;;;5130312;27;20453;-75
2023/05/09 12:08:04;;;;;;;11.43;10.00;;;;;;;;;;5130578;28;20816;-75
2023/05/09 12:10:32;;;;;;;12.80;10.20;;;;;;;;;;5130299;28;20456;-75
2023/05/09 12:12:59;;;;;;;9.73;8.83;;;;;;;;;;5130328;28;21056;-75
2023/05/09 12:15:26;;;;;;;10.10;8.90;;;;;;;;;;5129937;27;20489;-75
2023/05/09 12:18:03;;;;;;;15.00;8.90;;;;;;;;;;5130352;28;20453;-74
2023/05/09 12:20:41;;;;;;;11.23;9.10;;;;;;;;;;5129776;28;20514;-75
2023/05/09 12:23:09;;;;;;;11.13;8.67;;;;;;;;;;5129629;28;20487;-75
2023/05/09 12:25:36;;;;;;;8.67;7.77;;;;;;;;;;5123406;28;20445;-74
2023/05/09 12:28:03;;;;;;;12.13;9.23;;;;;;;;;;5116382;28;20955;-74
2023/05/09 12:30:31;;;;;;;12.47;8.77;;;;;;;;;;5116310;28;20461;-74
2023/05/09 12:32:58;;;;;;;11.30;7.77;;;;;;;;;;5116069;28;20509;-75
2023/05/09 12:35:26;;;;;;;10.33;7.57;;;;;;;;;;5115087;28;20496;-74
2023/05/09 12:37:58;;;;;;;9.43;8.43;;;;;;;;;;5116296;28;20449;-75
2023/05/09 12:40:25;;;;;;;9.50;8.03;;;;;;;;;;5116018;28;20458;-74
2023/05/09 12:42:58;;;;;;;10.23;8.37;;;;;;;;;;5115909;27;20489;-75
2023/05/09 12:45:26;;;;;;;10.97;7.70;;;;;;;;;;5115883;28;20848;-75
2023/05/09 12:47:53;;;;;;;9.77;8.60;;;;;;;;;;5116107;28;20511;-75
2023/05/09 12:50:20;;;;;;;10.53;8.70;;;;;;;;;;5115795;28;20454;-75
2023/05/09 12:52:51;;;;;;;9.67;8.77;;;;;;;;;;5115839;28;20481;-74
2023/05/09 12:55:20;;;;;;;10.17;9.10;;;;;;;;;;5115471;28;20534;-74
2023/05/09 12:57:57;;;;;;;10.07;8.77;;;;;;;;;;5115900;28;20438;-74
2023/05/09 13:00:25;;;;;;;13.70;9.37;;;;;;;;;;5115596;28;20452;-74
2023/05/09 13:02:52;;;;;;;12.30;9.43;;;;;;;;;;5115583;28;20986;-75
2023/05/09 13:05:20;;;;;;;12.50;9.73;;;;;;;;;;5115061;28;20503;-74
2023/05/09 13:07:48;;;;;;;10.57;8.67;;;;;;;;;;5115708;28;20442;-74
2023/05/09 13:10:17;;;;;;;13.10;9.60;;;;;;;;;;5115695;28;20445;-75
2023/05/09 13:12:47;;;;;;;11.37;8.90;;;;;;;;;;5115548;28;21057;-74
2023/05/09 13:15:14;;;;;;;14.30;9.80;;;;;;;;;;5114856;27;20485;-74
2023/05/09 13:17:41;;;;;;;11.13;9.20;;;;;;;;;;5115278;28;20960;-75
2023/05/09 13:20:09;;;;;;;11.77;8.37;;;;;;;;;;5115181;28;20456;-74
2023/05/09 13:22:36;;;;;;;10.17;8.80;;;;;;;;;;5114856;28;20526;-74
2023/05/09 13:25:04;;;;;;;9.80;7.93;;;;;;;;;;5115004;28;20448;-74
2023/05/09 13:27:31;;;;;;;19.03;8.93;;;;;;;;;;5115091;28;20449;-74
2023/05/09 13:30:00;;;;;;;9.83;8.30;;;;;;;;;;5115236;28;20488;-74
2023/05/09 13:32:27;;;;;;;9.47;8.53;;;;;;;;;;5114900;28;20469;-74
2023/05/09 13:34:54;;;;;;;12.97;7.80;;;;;;;;;;5114348;28;20493;-74
2023/05/09 13:37:21;;;;;;;10.60;7.10;;;;;;;;;;5114016;28;20453;-74
2023/05/09 13:39:49;;;;;;;8.50;7.70;;;;;;;;;;5114326;28;20454;-75
2023/05/09 13:42:16;;;;;;;8.17;7.37;;;;;;;;;;5114387;28;20466;-75
2023/05/09 13:44:43;;;;;;;7.27;5.47;;;;;;;;;;5113071;28;20805;-75
2023/05/09 13:47:11;;;;;;;15.37;7.10;;;;;;;;;;5114810;28;20458;-74
2023/05/09 13:49:38;;;;;;;7.13;6.43;;;;;;;;;;5114892;28;20452;-74
2023/05/09 13:52:07;;;;;;;7.93;7.13;;;;;;;;;;5114725;28;20787;-74
2023/05/09 13:54:34;;;;;;;8.53;5.83;;;;;;;;;;5114260;28;20669;-74
2023/05/09 13:57:02;;;;;;;8.37;6.90;;;;;;;;;;5114514;28;20969;-74
2023/05/09 13:59:29;;;;;;;8.03;6.37;;;;;;;;;;5114618;28;20476;-74
2023/05/09 14:01:58;;;;;;;7.00;6.33;;;;;;;;;;5114514;28;20446;-74
2023/05/09 14:04:26;;;;;;;22.73;7.37;;;;;;;;;;5114045;27;20530;-74
2023/05/09 14:06:54;;;;;;;8.40;6.10;;;;;;;;;;5114514;28;20456;-74
2023/05/09 14:09:21;;;;;;;7.37;6.67;;;;;;;;;;5114103;28;20451;-74
2023/05/09 14:11:50;;;;;;;8.67;6.03;;;;;;;;;;5114474;28;20818;-74
2023/05/09 14:14:17;;;;;;;9.80;5.70;;;;;;;;;;5113933;28;20493;-74
2023/05/09 14:16:44;;;;;;;8.10;5.37;;;;;;;;;;5114323;28;20463;-74
2023/05/09 14:19:14;;;;;;;7.10;5.80;;;;;;;;;;5114298;28;20953;-74
2023/05/09 14:21:42;;;;;;;5.97;5.07;;;;;;;;;;5114339;28;20506;-74
2023/05/09 14:24:09;;;;;;;6.10;5.60;;;;;;;;;;5113823;27;20818;-74
2023/05/09 14:26:37;;;;;;;6.93;5.60;;;;;;;;;;5114132;28;20458;-74
2023/05/09 14:29:04;;;;;;;6.50;4.87;;;;;;;;;;5114006;27;20454;-75
2023/05/09 14:31:32;;;;;;;12.90;4.60;;;;;;;;;;5113959;28;20459;-74
2023/05/09 14:33:59;;;;;;;5.23;4.67;;;;;;;;;;5113795;28;20474;-74
2023/05/09 14:36:26;;;;;;;6.00;5.10;;;;;;;;;;5113396;27;20497;-74
2023/05/09 14:38:54;;;;;;;5.93;4.90;;;;;;;;;;5113379;28;20458;-74
2023/05/09 14:41:22;;;;;;;5.63;4.70;;;;;;;;;;5113465;28;20456;-74
2023/05/09 14:43:49;;;;;;;5.63;5.03;;;;;;;;;;5113597;28;20474;-73
2023/05/09 14:46:16;;;;;;;6.37;4.93;;;;;;;;;;5113810;28;20943;-74